sensor_id;sensor_type;location;lat;lon;timestamp;P1;durP1;ratioP1;P2;durP2;ratioP2
75655;SDS011;64252;51.094;13.714;2023-02-15T00:01:25;61.47;;;21.30;;
75655;SDS011;64252;51.094;13.714;2023-02-15T00:03:50;62.20;;;22.13;;
75655;SDS011;64252;51.094;13.714;2023-02-15T00:06:16;73.15;;;21.85;;
75655;SDS011;64252;51.094;13.714;2023-02-15T00:08:42;74.95;;;23.38;;
75655;SDS011;64252;51.094;13.714;2023-02-15T00:11:08;63.92;;;23.10;;
75655;SDS011;64252;51.094;13.714;2023-02-15T00:13:36;66.57;;;23.05;;
75655;SDS011;64252;51.094;13.714;2023-02-15T00:16:03;57.50;;;21.08;;
75655;SDS011;64252;51.094;13.714;2023-02-15T00:18:30;61.83;;;22.33;;
75655;SDS011;64252;51.094;13.714;2023-02-15T00:20:56;62.65;;;21.60;;
75655;SDS011;64252;51.094;13.714;2023-02-15T00:23:23;66.97;;;20.95;;
75655;SDS011;64252;51.094;13.714;2023-02-15T00:25:48;56.22;;;21.35;;
75655;SDS011;64252;51.094;13.714;2023-02-15T00:28:15;52.10;;;18.60;;
75655;SDS011;64252;51.094;13.714;2023-02-15T00:30:41;58.78;;;21.38;;
75655;SDS011;64252;51.094;13.714;2023-02-15T00:33:06;61.83;;;19.27;;
75655;SDS011;64252;51.094;13.714;2023-02-15T00:35:32;62.22;;;21.33;;
75655;SDS011;64252;51.094;13.714;2023-02-15T00:37:58;45.95;;;17.75;;
75655;SDS011;64252;51.094;13.714;2023-02-15T00:40:23;53.42;;;19.80;;
75655;SDS011;64252;51.094;13.714;2023-02-15T00:42:49;55.45;;;20.45;;
75655;SDS011;64252;51.094;13.714;2023-02-15T00:45:14;59.20;;;18.40;;
75655;SDS011;64252;51.094;13.714;2023-02-15T00:47:40;58.28;;;20.08;;
75655;SDS011;64252;51.094;13.714;2023-02-15T00:50:05;63.20;;;20.73;;
75655;SDS011;64252;51.094;13.714;2023-02-15T00:52:31;59.03;;;19.70;;
75655;SDS011;64252;51.094;13.714;2023-02-15T00:54:57;58.92;;;19.23;;
75655;SDS011;64252;51.094;13.714;2023-02-15T00:57:22;55.20;;;20.00;;
75655;SDS011;64252;51.094;13.714;2023-02-15T00:59:48;56.55;;;20.08;;
75655;SDS011;64252;51.094;13.714;2023-02-15T01:02:13;65.53;;;20.92;;
75655;SDS011;64252;51.094;13.714;2023-02-15T01:04:39;61.97;;;20.27;;
75655;SDS011;64252;51.094;13.714;2023-02-15T01:07:04;67.43;;;21.48;;
75655;SDS011;64252;51.094;13.714;2023-02-15T01:09:32;57.50;;;19.25;;
75655;SDS011;64252;51.094;13.714;2023-02-15T01:11:57;57.42;;;18.17;;
75655;SDS011;64252;51.094;13.714;2023-02-15T01:14:25;59.65;;;20.75;;
75655;SDS011;64252;51.094;13.714;2023-02-15T01:16:50;62.72;;;20.08;;
75655;SDS011;64252;51.094;13.714;2023-02-15T01:19:16;55.63;;;19.23;;
75655;SDS011;64252;51.094;13.714;2023-02-15T01:21:41;54.80;;;18.73;;
75655;SDS011;64252;51.094;13.714;2023-02-15T01:24:13;61.55;;;19.10;;
75655;SDS011;64252;51.094;13.714;2023-02-15T01:26:38;60.58;;;20.60;;
75655;SDS011;64252;51.094;13.714;2023-02-15T01:29:04;53.58;;;19.17;;
75655;SDS011;64252;51.094;13.714;2023-02-15T01:31:30;51.97;;;18.13;;
75655;SDS011;64252;51.094;13.714;2023-02-15T01:33:56;56.28;;;18.85;;
75655;SDS011;64252;51.094;13.714;2023-02-15T01:36:21;54.38;;;19.80;;
75655;SDS011;64252;51.094;13.714;2023-02-15T01:38:47;53.97;;;18.83;;
75655;SDS011;64252;51.094;13.714;2023-02-15T01:41:12;62.45;;;19.60;;
75655;SDS011;64252;51.094;13.714;2023-02-15T01:49:16;55.33;;;18.27;;
75655;SDS011;64252;51.094;13.714;2023-02-15T01:51:45;58.05;;;18.85;;
75655;SDS011;64252;51.094;13.714;2023-02-15T01:54:34;53.70;;;18.15;;
75655;SDS011;64252;51.094;13.714;2023-02-15T01:57:05;50.88;;;18.58;;
75655;SDS011;64252;51.094;13.714;2023-02-15T01:59:36;55.08;;;18.25;;
75655;SDS011;64252;51.094;13.714;2023-02-15T02:02:04;55.75;;;17.25;;
75655;SDS011;64252;51.094;13.714;2023-02-15T02:07:06;51.50;;;16.08;;
75655;SDS011;64252;51.094;13.714;2023-02-15T02:09:33;58.15;;;19.25;;
75655;SDS011;64252;51.094;13.714;2023-02-15T02:12:00;57.50;;;18.55;;
75655;SDS011;64252;51.094;13.714;2023-02-15T02:14:26;59.70;;;19.42;;
75655;SDS011;64252;51.094;13.714;2023-02-15T02:16:58;65.88;;;20.23;;
75655;SDS011;64252;51.094;13.714;2023-02-15T02:20:08;63.70;;;18.15;;
75655;SDS011;64252;51.094;13.714;2023-02-15T02:34:23;60.60;;;17.92;;
75655;SDS011;64252;51.094;13.714;2023-02-15T02:39:47;63.10;;;18.42;;
75655;SDS011;64252;51.094;13.714;2023-02-15T02:42:24;60.45;;;18.13;;
75655;SDS011;64252;51.094;13.714;2023-02-15T02:45:16;55.58;;;18.23;;
75655;SDS011;64252;51.094;13.714;2023-02-15T02:47:54;65.72;;;18.35;;
75655;SDS011;64252;51.094;13.714;2023-02-15T02:50:26;57.42;;;17.63;;
75655;SDS011;64252;51.094;13.714;2023-02-15T02:52:54;71.00;;;19.88;;
75655;SDS011;64252;51.094;13.714;2023-02-15T02:55:41;61.45;;;22.10;;
75655;SDS011;64252;51.094;13.714;2023-02-15T02:58:20;53.42;;;17.58;;
75655;SDS011;64252;51.094;13.714;2023-02-15T03:00:53;62.03;;;20.00;;
75655;SDS011;64252;51.094;13.714;2023-02-15T03:05:57;56.05;;;17.55;;
75655;SDS011;64252;51.094;13.714;2023-02-15T03:08:25;62.42;;;18.90;;
75655;SDS011;64252;51.094;13.714;2023-02-15T03:10:58;53.75;;;17.23;;
75655;SDS011;64252;51.094;13.714;2023-02-15T03:13:25;57.15;;;17.48;;
75655;SDS011;64252;51.094;13.714;2023-02-15T03:15:52;59.75;;;18.00;;
75655;SDS011;64252;51.094;13.714;2023-02-15T03:18:39;54.13;;;17.42;;
75655;SDS011;64252;51.094;13.714;2023-02-15T03:21:09;45.85;;;16.80;;
75655;SDS011;64252;51.094;13.714;2023-02-15T03:23:56;53.92;;;16.42;;
75655;SDS011;64252;51.094;13.714;2023-02-15T03:26:26;55.08;;;17.30;;
75655;SDS011;64252;51.094;13.714;2023-02-15T03:28:53;53.03;;;16.35;;
75655;SDS011;64252;51.094;13.714;2023-02-15T03:31:23;58.13;;;18.20;;
75655;SDS011;64252;51.094;13.714;2023-02-15T03:33:55;57.00;;;18.08;;
75655;SDS011;64252;51.094;13.714;2023-02-15T03:36:27;56.58;;;18.40;;
75655;SDS011;64252;51.094;13.714;2023-02-15T03:39:04;59.15;;;17.55;;
75655;SDS011;64252;51.094;13.714;2023-02-15T03:41:39;56.92;;;17.98;;
75655;SDS011;64252;51.094;13.714;2023-02-15T03:44:14;49.97;;;16.73;;
75655;SDS011;64252;51.094;13.714;2023-02-15T03:47:19;58.67;;;17.05;;
75655;SDS011;64252;51.094;13.714;2023-02-15T03:50:00;52.83;;;15.77;;
75655;SDS011;64252;51.094;13.714;2023-02-15T03:52:49;55.00;;;18.75;;
75655;SDS011;64252;51.094;13.714;2023-02-15T03:55:15;51.47;;;17.10;;
75655;SDS011;64252;51.094;13.714;2023-02-15T03:57:41;49.92;;;15.75;;
75655;SDS011;64252;51.094;13.714;2023-02-15T04:00:25;59.53;;;18.63;;
75655;SDS011;64252;51.094;13.714;2023-02-15T04:06:08;46.53;;;15.98;;
75655;SDS011;64252;51.094;13.714;2023-02-15T04:08:33;57.38;;;17.55;;
75655;SDS011;64252;51.094;13.714;2023-02-15T04:11:19;56.00;;;17.17;;
75655;SDS011;64252;51.094;13.714;2023-02-15T04:13:45;45.90;;;16.42;;
75655;SDS011;64252;51.094;13.714;2023-02-15T04:16:11;52.72;;;17.02;;
75655;SDS011;64252;51.094;13.714;2023-02-15T04:18:39;49.30;;;14.55;;
75655;SDS011;64252;51.094;13.714;2023-02-15T04:21:25;52.47;;;15.57;;
75655;SDS011;64252;51.094;13.714;2023-02-15T04:24:11;55.08;;;15.98;;
75655;SDS011;64252;51.094;13.714;2023-02-15T04:26:56;71.03;;;18.52;;
75655;SDS011;64252;51.094;13.714;2023-02-15T04:29:22;67.05;;;17.67;;
75655;SDS011;64252;51.094;13.714;2023-02-15T04:31:49;55.60;;;15.75;;
75655;SDS011;64252;51.094;13.714;2023-02-15T04:34:16;48.67;;;14.63;;
75655;SDS011;64252;51.094;13.714;2023-02-15T04:36:42;58.45;;;15.63;;
75655;SDS011;64252;51.094;13.714;2023-02-15T04:39:08;49.13;;;14.20;;
75655;SDS011;64252;51.094;13.714;2023-02-15T04:41:34;61.00;;;16.88;;
75655;SDS011;64252;51.094;13.714;2023-02-15T04:44:00;55.83;;;16.02;;
75655;SDS011;64252;51.094;13.714;2023-02-15T04:46:27;51.25;;;15.73;;
75655;SDS011;64252;51.094;13.714;2023-02-15T04:48:53;47.97;;;15.25;;
75655;SDS011;64252;51.094;13.714;2023-02-15T04:51:19;60.60;;;16.10;;
75655;SDS011;64252;51.094;13.714;2023-02-15T04:53:44;48.40;;;15.07;;
75655;SDS011;64252;51.094;13.714;2023-02-15T04:56:10;46.92;;;15.63;;
75655;SDS011;64252;51.094;13.714;2023-02-15T04:58:35;45.58;;;14.50;;
75655;SDS011;64252;51.094;13.714;2023-02-15T05:01:02;44.90;;;12.95;;
75655;SDS011;64252;51.094;13.714;2023-02-15T05:03:28;48.78;;;15.80;;
75655;SDS011;64252;51.094;13.714;2023-02-15T05:05:54;48.97;;;15.23;;
75655;SDS011;64252;51.094;13.714;2023-02-15T05:08:19;52.17;;;16.13;;
75655;SDS011;64252;51.094;13.714;2023-02-15T05:10:47;47.83;;;14.18;;
75655;SDS011;64252;51.094;13.714;2023-02-15T05:13:13;63.95;;;16.17;;
75655;SDS011;64252;51.094;13.714;2023-02-15T05:15:39;45.95;;;14.13;;
75655;SDS011;64252;51.094;13.714;2023-02-15T05:18:05;47.08;;;12.93;;
75655;SDS011;64252;51.094;13.714;2023-02-15T05:20:31;52.03;;;13.68;;
75655;SDS011;64252;51.094;13.714;2023-02-15T05:22:57;46.05;;;13.90;;
75655;SDS011;64252;51.094;13.714;2023-02-15T05:25:22;44.28;;;12.73;;
75655;SDS011;64252;51.094;13.714;2023-02-15T05:28:08;39.13;;;12.00;;
75655;SDS011;64252;51.094;13.714;2023-02-15T05:30:47;45.38;;;13.35;;
75655;SDS011;64252;51.094;13.714;2023-02-15T05:33:15;51.78;;;15.88;;
75655;SDS011;64252;51.094;13.714;2023-02-15T05:35:40;55.40;;;16.67;;
75655;SDS011;64252;51.094;13.714;2023-02-15T05:38:06;48.78;;;13.52;;
75655;SDS011;64252;51.094;13.714;2023-02-15T05:40:32;43.35;;;12.70;;
75655;SDS011;64252;51.094;13.714;2023-02-15T05:42:57;45.30;;;13.27;;
75655;SDS011;64252;51.094;13.714;2023-02-15T05:45:23;45.63;;;14.18;;
75655;SDS011;64252;51.094;13.714;2023-02-15T05:47:51;53.58;;;15.32;;
75655;SDS011;64252;51.094;13.714;2023-02-15T05:50:17;58.28;;;15.73;;
75655;SDS011;64252;51.094;13.714;2023-02-15T05:52:42;51.17;;;15.85;;
75655;SDS011;64252;51.094;13.714;2023-02-15T05:55:08;40.55;;;13.00;;
75655;SDS011;64252;51.094;13.714;2023-02-15T05:57:34;50.47;;;15.45;;
75655;SDS011;64252;51.094;13.714;2023-02-15T06:00:00;47.95;;;14.32;;
75655;SDS011;64252;51.094;13.714;2023-02-15T06:02:36;52.15;;;15.13;;
75655;SDS011;64252;51.094;13.714;2023-02-15T06:05:03;49.17;;;14.43;;
75655;SDS011;64252;51.094;13.714;2023-02-15T06:07:30;46.90;;;13.05;;
75655;SDS011;64252;51.094;13.714;2023-02-15T06:09:55;44.90;;;14.55;;
75655;SDS011;64252;51.094;13.714;2023-02-15T06:12:21;48.97;;;15.00;;
75655;SDS011;64252;51.094;13.714;2023-02-15T06:14:47;57.05;;;16.92;;
75655;SDS011;64252;51.094;13.714;2023-02-15T06:17:12;44.65;;;13.75;;
75655;SDS011;64252;51.094;13.714;2023-02-15T06:19:38;47.83;;;14.45;;
75655;SDS011;64252;51.094;13.714;2023-02-15T06:22:03;44.05;;;13.57;;
75655;SDS011;64252;51.094;13.714;2023-02-15T06:24:31;46.22;;;13.38;;
75655;SDS011;64252;51.094;13.714;2023-02-15T06:26:57;50.28;;;13.95;;
75655;SDS011;64252;51.094;13.714;2023-02-15T06:29:23;43.85;;;14.30;;
75655;SDS011;64252;51.094;13.714;2023-02-15T06:31:49;38.20;;;12.63;;
75655;SDS011;64252;51.094;13.714;2023-02-15T06:34:14;45.50;;;14.35;;
75655;SDS011;64252;51.094;13.714;2023-02-15T06:36:40;42.50;;;13.57;;
75655;SDS011;64252;51.094;13.714;2023-02-15T06:39:05;50.20;;;13.75;;
75655;SDS011;64252;51.094;13.714;2023-02-15T06:41:31;52.33;;;14.75;;
75655;SDS011;64252;51.094;13.714;2023-02-15T06:43:57;47.35;;;14.52;;
75655;SDS011;64252;51.094;13.714;2023-02-15T06:46:22;46.10;;;13.68;;
75655;SDS011;64252;51.094;13.714;2023-02-15T06:48:48;43.35;;;13.23;;
75655;SDS011;64252;51.094;13.714;2023-02-15T06:51:13;39.97;;;13.35;;
75655;SDS011;64252;51.094;13.714;2023-02-15T06:53:39;35.40;;;11.90;;
75655;SDS011;64252;51.094;13.714;2023-02-15T06:56:08;47.60;;;14.82;;
75655;SDS011;64252;51.094;13.714;2023-02-15T06:58:35;38.90;;;13.63;;
75655;SDS011;64252;51.094;13.714;2023-02-15T07:01:01;41.08;;;13.68;;
75655;SDS011;64252;51.094;13.714;2023-02-15T07:03:28;39.03;;;11.20;;
75655;SDS011;64252;51.094;13.714;2023-02-15T07:05:58;41.38;;;13.65;;
75655;SDS011;64252;51.094;13.714;2023-02-15T07:08:25;48.40;;;17.02;;
75655;SDS011;64252;51.094;13.714;2023-02-15T07:10:52;40.72;;;15.30;;
75655;SDS011;64252;51.094;13.714;2023-02-15T07:13:19;45.90;;;15.82;;
75655;SDS011;64252;51.094;13.714;2023-02-15T07:15:45;44.20;;;14.95;;
75655;SDS011;64252;51.094;13.714;2023-02-15T07:18:12;43.30;;;13.43;;
75655;SDS011;64252;51.094;13.714;2023-02-15T07:20:38;51.22;;;17.42;;
75655;SDS011;64252;51.094;13.714;2023-02-15T07:23:06;61.35;;;22.30;;
75655;SDS011;64252;51.094;13.714;2023-02-15T07:25:33;55.05;;;19.42;;
75655;SDS011;64252;51.094;13.714;2023-02-15T07:27:59;53.53;;;18.85;;
75655;SDS011;64252;51.094;13.714;2023-02-15T07:30:26;51.78;;;20.20;;
75655;SDS011;64252;51.094;13.714;2023-02-15T07:32:56;52.13;;;19.42;;
75655;SDS011;64252;51.094;13.714;2023-02-15T07:35:48;49.08;;;16.75;;
75655;SDS011;64252;51.094;13.714;2023-02-15T07:38:18;51.60;;;18.45;;
75655;SDS011;64252;51.094;13.714;2023-02-15T07:40:44;50.00;;;17.70;;
75655;SDS011;64252;51.094;13.714;2023-02-15T07:43:10;38.38;;;12.90;;
75655;SDS011;64252;51.094;13.714;2023-02-15T07:45:36;41.70;;;14.20;;
75655;SDS011;64252;51.094;13.714;2023-02-15T07:48:02;36.38;;;13.13;;
75655;SDS011;64252;51.094;13.714;2023-02-15T07:50:29;37.45;;;11.60;;
75655;SDS011;64252;51.094;13.714;2023-02-15T07:52:55;42.70;;;15.93;;
75655;SDS011;64252;51.094;13.714;2023-02-15T07:55:21;39.30;;;13.00;;
75655;SDS011;64252;51.094;13.714;2023-02-15T07:57:47;34.35;;;11.80;;
75655;SDS011;64252;51.094;13.714;2023-02-15T08:00:15;28.70;;;10.32;;
75655;SDS011;64252;51.094;13.714;2023-02-15T08:02:42;28.75;;;9.68;;
75655;SDS011;64252;51.094;13.714;2023-02-15T08:05:13;25.77;;;10.60;;
75655;SDS011;64252;51.094;13.714;2023-02-15T08:07:38;25.17;;;9.88;;
75655;SDS011;64252;51.094;13.714;2023-02-15T08:10:04;26.67;;;10.43;;
75655;SDS011;64252;51.094;13.714;2023-02-15T08:12:30;24.90;;;10.02;;
75655;SDS011;64252;51.094;13.714;2023-02-15T08:14:55;23.75;;;8.45;;
75655;SDS011;64252;51.094;13.714;2023-02-15T08:17:21;21.58;;;8.80;;
75655;SDS011;64252;51.094;13.714;2023-02-15T08:19:47;18.70;;;7.85;;
75655;SDS011;64252;51.094;13.714;2023-02-15T08:22:13;23.80;;;9.15;;
75655;SDS011;64252;51.094;13.714;2023-02-15T08:24:39;22.38;;;9.23;;
75655;SDS011;64252;51.094;13.714;2023-02-15T08:27:06;15.77;;;6.90;;
75655;SDS011;64252;51.094;13.714;2023-02-15T08:29:34;17.67;;;7.68;;
75655;SDS011;64252;51.094;13.714;2023-02-15T08:32:03;18.58;;;8.50;;
75655;SDS011;64252;51.094;13.714;2023-02-15T08:34:31;20.33;;;8.60;;
75655;SDS011;64252;51.094;13.714;2023-02-15T08:36:59;24.20;;;10.05;;
75655;SDS011;64252;51.094;13.714;2023-02-15T08:39:25;19.38;;;7.85;;
75655;SDS011;64252;51.094;13.714;2023-02-15T08:41:51;19.38;;;7.18;;
75655;SDS011;64252;51.094;13.714;2023-02-15T08:44:18;19.55;;;8.15;;
75655;SDS011;64252;51.094;13.714;2023-02-15T08:46:45;19.13;;;7.90;;
75655;SDS011;64252;51.094;13.714;2023-02-15T08:49:14;17.35;;;8.00;;
75655;SDS011;64252;51.094;13.714;2023-02-15T08:51:44;20.10;;;8.00;;
75655;SDS011;64252;51.094;13.714;2023-02-15T08:54:13;22.02;;;8.32;;
75655;SDS011;64252;51.094;13.714;2023-02-15T08:56:41;19.60;;;7.25;;
75655;SDS011;64252;51.094;13.714;2023-02-15T08:59:12;16.65;;;7.15;;
75655;SDS011;64252;51.094;13.714;2023-02-15T09:01:42;16.67;;;7.70;;
75655;SDS011;64252;51.094;13.714;2023-02-15T09:04:08;14.52;;;7.10;;
75655;SDS011;64252;51.094;13.714;2023-02-15T09:06:35;15.75;;;7.53;;
75655;SDS011;64252;51.094;13.714;2023-02-15T09:09:02;13.18;;;6.35;;
75655;SDS011;64252;51.094;13.714;2023-02-15T09:11:29;13.73;;;6.40;;
75655;SDS011;64252;51.094;13.714;2023-02-15T09:14:03;15.48;;;6.65;;
75655;SDS011;64252;51.094;13.714;2023-02-15T09:16:31;17.23;;;7.32;;
75655;SDS011;64252;51.094;13.714;2023-02-15T09:18:58;18.30;;;6.68;;
75655;SDS011;64252;51.094;13.714;2023-02-15T09:21:26;12.95;;;5.90;;
75655;SDS011;64252;51.094;13.714;2023-02-15T09:23:56;14.10;;;6.88;;
75655;SDS011;64252;51.094;13.714;2023-02-15T09:26:25;14.80;;;6.40;;
75655;SDS011;64252;51.094;13.714;2023-02-15T09:28:54;11.60;;;5.15;;
75655;SDS011;64252;51.094;13.714;2023-02-15T09:31:23;15.63;;;7.82;;
75655;SDS011;64252;51.094;13.714;2023-02-15T09:33:51;15.77;;;6.40;;
75655;SDS011;64252;51.094;13.714;2023-02-15T09:36:24;14.13;;;6.00;;
75655;SDS011;64252;51.094;13.714;2023-02-15T09:38:56;16.05;;;6.70;;
75655;SDS011;64252;51.094;13.714;2023-02-15T10:00:25;17.73;;;7.57;;
75655;SDS011;64252;51.094;13.714;2023-02-15T10:14:07;20.67;;;8.00;;
75655;SDS011;64252;51.094;13.714;2023-02-15T10:19:19;14.30;;;7.22;;
75655;SDS011;64252;51.094;13.714;2023-02-15T10:22:03;18.45;;;8.00;;
75655;SDS011;64252;51.094;13.714;2023-02-15T10:27:20;16.75;;;8.10;;
75655;SDS011;64252;51.094;13.714;2023-02-15T10:29:57;18.10;;;7.35;;
75655;SDS011;64252;51.094;13.714;2023-02-15T10:32:40;16.92;;;8.45;;
75655;SDS011;64252;51.094;13.714;2023-02-15T10:35:33;17.80;;;8.55;;
75655;SDS011;64252;51.094;13.714;2023-02-15T10:41:26;19.80;;;8.95;;
75655;SDS011;64252;51.094;13.714;2023-02-15T10:48:39;17.25;;;8.23;;
75655;SDS011;64252;51.094;13.714;2023-02-15T10:51:36;19.30;;;8.57;;
75655;SDS011;64252;51.094;13.714;2023-02-15T10:59:48;19.80;;;8.57;;
75655;SDS011;64252;51.094;13.714;2023-02-15T11:08:34;14.25;;;7.32;;
75655;SDS011;64252;51.094;13.714;2023-02-15T11:11:05;14.63;;;7.28;;
75655;SDS011;64252;51.094;13.714;2023-02-15T11:13:39;16.35;;;7.63;;
75655;SDS011;64252;51.094;13.714;2023-02-15T11:16:17;15.50;;;6.97;;
75655;SDS011;64252;51.094;13.714;2023-02-15T11:18:50;14.85;;;7.05;;
75655;SDS011;64252;51.094;13.714;2023-02-15T11:21:22;14.43;;;6.47;;
75655;SDS011;64252;51.094;13.714;2023-02-15T11:23:57;13.38;;;6.95;;
75655;SDS011;64252;51.094;13.714;2023-02-15T11:26:36;14.95;;;7.55;;
75655;SDS011;64252;51.094;13.714;2023-02-15T11:31:46;15.15;;;8.05;;
75655;SDS011;64252;51.094;13.714;2023-02-15T11:34:25;15.75;;;7.80;;
75655;SDS011;64252;51.094;13.714;2023-02-15T11:36:58;17.05;;;8.48;;
75655;SDS011;64252;51.094;13.714;2023-02-15T11:39:30;14.52;;;6.90;;
75655;SDS011;64252;51.094;13.714;2023-02-15T11:41:58;17.77;;;8.38;;
75655;SDS011;64252;51.094;13.714;2023-02-15T11:44:37;17.10;;;8.13;;
75655;SDS011;64252;51.094;13.714;2023-02-15T11:47:10;16.15;;;7.97;;
75655;SDS011;64252;51.094;13.714;2023-02-15T11:49:37;14.48;;;7.32;;
75655;SDS011;64252;51.094;13.714;2023-02-15T11:52:13;17.05;;;6.88;;
75655;SDS011;64252;51.094;13.714;2023-02-15T11:54:42;17.63;;;8.30;;
75655;SDS011;64252;51.094;13.714;2023-02-15T12:02:38;15.25;;;7.78;;
75655;SDS011;64252;51.094;13.714;2023-02-15T12:05:14;16.90;;;7.90;;
75655;SDS011;64252;51.094;13.714;2023-02-15T12:08:19;18.70;;;8.45;;
75655;SDS011;64252;51.094;13.714;2023-02-15T12:10:57;16.15;;;8.18;;
75655;SDS011;64252;51.094;13.714;2023-02-15T12:13:27;15.02;;;6.90;;
75655;SDS011;64252;51.094;13.714;2023-02-15T12:15:55;16.63;;;7.13;;
75655;SDS011;64252;51.094;13.714;2023-02-15T12:18:33;15.63;;;7.30;;
75655;SDS011;64252;51.094;13.714;2023-02-15T12:21:02;16.45;;;7.78;;
75655;SDS011;64252;51.094;13.714;2023-02-15T12:23:32;18.40;;;8.10;;
75655;SDS011;64252;51.094;13.714;2023-02-15T12:25:58;19.67;;;7.30;;
75655;SDS011;64252;51.094;13.714;2023-02-15T12:33:49;16.80;;;7.05;;
75655;SDS011;64252;51.094;13.714;2023-02-15T12:36:19;13.75;;;6.75;;
75655;SDS011;64252;51.094;13.714;2023-02-15T12:39:04;16.73;;;8.18;;
75655;SDS011;64252;51.094;13.714;2023-02-15T12:44:53;17.08;;;7.80;;
75655;SDS011;64252;51.094;13.714;2023-02-15T12:47:24;13.07;;;7.03;;
75655;SDS011;64252;51.094;13.714;2023-02-15T12:50:24;14.07;;;6.82;;
75655;SDS011;64252;51.094;13.714;2023-02-15T12:53:04;12.85;;;6.57;;
75655;SDS011;64252;51.094;13.714;2023-02-15T12:55:31;15.30;;;7.07;;
75655;SDS011;64252;51.094;13.714;2023-02-15T13:00:42;14.18;;;6.88;;
75655;SDS011;64252;51.094;13.714;2023-02-15T13:03:15;17.48;;;8.00;;
75655;SDS011;64252;51.094;13.714;2023-02-15T13:05:44;16.45;;;7.10;;
75655;SDS011;64252;51.094;13.714;2023-02-15T13:11:21;18.63;;;8.13;;
75655;SDS011;64252;51.094;13.714;2023-02-15T13:13:55;16.95;;;8.25;;
75655;SDS011;64252;51.094;13.714;2023-02-15T13:16:30;13.90;;;7.05;;
75655;SDS011;64252;51.094;13.714;2023-02-15T13:19:04;14.73;;;7.30;;
75655;SDS011;64252;51.094;13.714;2023-02-15T13:21:38;15.70;;;7.57;;
75655;SDS011;64252;51.094;13.714;2023-02-15T13:24:17;14.25;;;7.63;;
75655;SDS011;64252;51.094;13.714;2023-02-15T13:26:44;14.10;;;6.88;;
75655;SDS011;64252;51.094;13.714;2023-02-15T13:29:24;15.18;;;7.63;;
75655;SDS011;64252;51.094;13.714;2023-02-15T13:31:55;15.15;;;7.50;;
75655;SDS011;64252;51.094;13.714;2023-02-15T13:34:36;18.17;;;8.65;;
75655;SDS011;64252;51.094;13.714;2023-02-15T13:37:20;15.73;;;7.90;;
75655;SDS011;64252;51.094;13.714;2023-02-15T13:42:38;15.25;;;8.02;;
75655;SDS011;64252;51.094;13.714;2023-02-15T13:47:57;12.68;;;6.68;;
75655;SDS011;64252;51.094;13.714;2023-02-15T13:56:02;15.45;;;7.80;;
75655;SDS011;64252;51.094;13.714;2023-02-15T14:01:24;17.10;;;7.32;;
75655;SDS011;64252;51.094;13.714;2023-02-15T14:07:28;16.40;;;7.00;;
75655;SDS011;64252;51.094;13.714;2023-02-15T14:09:53;13.48;;;6.70;;
75655;SDS011;64252;51.094;13.714;2023-02-15T14:12:48;14.75;;;6.82;;
75655;SDS011;64252;51.094;13.714;2023-02-15T14:15:40;16.85;;;8.52;;
75655;SDS011;64252;51.094;13.714;2023-02-15T14:35:28;17.30;;;9.40;;
75655;SDS011;64252;51.094;13.714;2023-02-15T14:38:04;16.98;;;8.95;;
75655;SDS011;64252;51.094;13.714;2023-02-15T14:48:56;14.85;;;7.57;;
75655;SDS011;64252;51.094;13.714;2023-02-15T14:52:14;21.52;;;10.52;;
75655;SDS011;64252;51.094;13.714;2023-02-15T14:56:44;19.98;;;9.68;;
75655;SDS011;64252;51.094;13.714;2023-02-15T15:01:36;20.50;;;9.75;;
75655;SDS011;64252;51.094;13.714;2023-02-15T15:04:07;21.92;;;11.13;;
75655;SDS011;64252;51.094;13.714;2023-02-15T15:06:39;21.70;;;11.23;;
75655;SDS011;64252;51.094;13.714;2023-02-15T15:09:20;18.63;;;8.70;;
75655;SDS011;64252;51.094;13.714;2023-02-15T15:11:51;26.15;;;12.13;;
75655;SDS011;64252;51.094;13.714;2023-02-15T15:17:03;21.02;;;9.85;;
75655;SDS011;64252;51.094;13.714;2023-02-15T15:22:20;23.88;;;10.57;;
75655;SDS011;64252;51.094;13.714;2023-02-15T15:24:47;23.83;;;11.20;;
75655;SDS011;64252;51.094;13.714;2023-02-15T15:49:44;25.77;;;11.25;;
75655;SDS011;64252;51.094;13.714;2023-02-15T15:52:18;22.77;;;11.07;;
75655;SDS011;64252;51.094;13.714;2023-02-15T15:54:48;25.85;;;10.40;;
75655;SDS011;64252;51.094;13.714;2023-02-15T15:59:55;22.27;;;10.40;;
75655;SDS011;64252;51.094;13.714;2023-02-15T16:02:23;27.20;;;12.75;;
75655;SDS011;64252;51.094;13.714;2023-02-15T16:04:49;28.13;;;11.95;;
75655;SDS011;64252;51.094;13.714;2023-02-15T16:07:25;23.60;;;11.05;;
75655;SDS011;64252;51.094;13.714;2023-02-15T16:12:20;26.17;;;12.18;;
75655;SDS011;64252;51.094;13.714;2023-02-15T16:14:45;27.30;;;12.05;;
75655;SDS011;64252;51.094;13.714;2023-02-15T16:17:24;29.63;;;12.65;;
75655;SDS011;64252;51.094;13.714;2023-02-15T16:19:52;28.08;;;12.13;;
75655;SDS011;64252;51.094;13.714;2023-02-15T16:22:23;26.30;;;12.60;;
75655;SDS011;64252;51.094;13.714;2023-02-15T16:27:42;24.58;;;11.02;;
75655;SDS011;64252;51.094;13.714;2023-02-15T16:30:19;31.20;;;13.77;;
75655;SDS011;64252;51.094;13.714;2023-02-15T16:32:54;25.13;;;11.88;;
75655;SDS011;64252;51.094;13.714;2023-02-15T16:35:28;27.60;;;12.40;;
75655;SDS011;64252;51.094;13.714;2023-02-15T16:37:54;29.67;;;13.80;;
75655;SDS011;64252;51.094;13.714;2023-02-15T16:42:53;27.35;;;12.00;;
75655;SDS011;64252;51.094;13.714;2023-02-15T16:45:23;33.65;;;14.88;;
75655;SDS011;64252;51.094;13.714;2023-02-15T16:47:53;29.13;;;13.07;;
75655;SDS011;64252;51.094;13.714;2023-02-15T16:50:23;26.42;;;12.13;;
75655;SDS011;64252;51.094;13.714;2023-02-15T16:52:54;26.55;;;12.48;;
75655;SDS011;64252;51.094;13.714;2023-02-15T16:55:32;28.35;;;11.88;;
75655;SDS011;64252;51.094;13.714;2023-02-15T16:58:03;30.88;;;13.82;;
75655;SDS011;64252;51.094;13.714;2023-02-15T17:00:37;29.25;;;12.60;;
75655;SDS011;64252;51.094;13.714;2023-02-15T17:05:45;28.65;;;12.05;;
75655;SDS011;64252;51.094;13.714;2023-02-15T17:13:30;32.25;;;14.88;;
75655;SDS011;64252;51.094;13.714;2023-02-15T17:18:25;32.40;;;14.93;;
75655;SDS011;64252;51.094;13.714;2023-02-15T17:20:54;31.20;;;14.07;;
75655;SDS011;64252;51.094;13.714;2023-02-15T17:32:18;34.55;;;14.80;;
75655;SDS011;64252;51.094;13.714;2023-02-15T17:38:40;28.90;;;12.88;;
75655;SDS011;64252;51.094;13.714;2023-02-15T17:41:28;33.78;;;13.77;;
75655;SDS011;64252;51.094;13.714;2023-02-15T17:56:47;36.05;;;15.10;;
75655;SDS011;64252;51.094;13.714;2023-02-15T18:15:57;42.55;;;16.08;;
75655;SDS011;64252;51.094;13.714;2023-02-15T18:18:38;39.58;;;15.48;;
75655;SDS011;64252;51.094;13.714;2023-02-15T18:21:07;28.45;;;12.32;;
75655;SDS011;64252;51.094;13.714;2023-02-15T18:23:35;39.70;;;16.08;;
75655;SDS011;64252;51.094;13.714;2023-02-15T18:26:01;36.33;;;14.30;;
75655;SDS011;64252;51.094;13.714;2023-02-15T18:28:26;41.85;;;15.63;;
75655;SDS011;64252;51.094;13.714;2023-02-15T18:30:52;43.03;;;16.02;;
75655;SDS011;64252;51.094;13.714;2023-02-15T18:33:29;39.25;;;15.55;;
75655;SDS011;64252;51.094;13.714;2023-02-15T18:36:02;40.03;;;15.88;;
75655;SDS011;64252;51.094;13.714;2023-02-15T18:38:30;34.28;;;12.88;;